createdAt,value
2023-03-12T00:00:14.253Z,7.37
2023-03-12T00:02:42.018Z,5.27
2023-03-12T00:05:11.619Z,4.23
2023-03-12T00:07:40.104Z,7.27
2023-03-12T00:10:08.643Z,4.10
2023-03-12T00:12:36.957Z,3.10
2023-03-12T00:15:05.028Z,3.90
2023-03-12T00:17:33.814Z,6.67
2023-03-12T00:20:01.509Z,12.60
2023-03-12T00:22:31.123Z,6.87
2023-03-12T00:24:58.964Z,6.10
2023-03-12T00:27:27.128Z,6.07
2023-03-12T00:29:55.088Z,8.20
2023-03-12T00:32:22.922Z,4.63
2023-03-12T00:34:54.574Z,10.80
2023-03-12T00:37:23.079Z,5.07
2023-03-12T00:39:52.322Z,5.83
2023-03-12T00:42:20.720Z,7.57
2023-03-12T00:44:49.736Z,5.53
2023-03-12T00:47:17.645Z,4.80
2023-03-12T00:49:45.440Z,4.97
2023-03-12T00:52:13.300Z,4.87
2023-03-12T00:54:40.964Z,6.23
2023-03-12T00:57:10.350Z,2.83
2023-03-12T00:59:40.608Z,4.10
2023-03-12T01:02:08.718Z,3.40
2023-03-12T01:04:36.484Z,14.00
2023-03-12T01:07:04.535Z,6.13
2023-03-12T01:09:32.218Z,8.77
2023-03-12T01:12:00.240Z,5.53
2023-03-12T01:14:30.101Z,5.80
2023-03-12T01:16:57.914Z,8.33
2023-03-12T01:19:25.541Z,5.23
2023-03-12T01:21:55.912Z,5.73
2023-03-12T01:24:23.645Z,5.40
2023-03-12T01:26:51.378Z,7.10
2023-03-12T01:29:19.540Z,4.93
2023-03-12T01:31:48.756Z,6.93
2023-03-12T01:34:16.488Z,3.70
2023-03-12T01:36:45.043Z,5.77
2023-03-12T01:39:12.881Z,5.73
2023-03-12T01:41:41.364Z,5.30
2023-03-12T01:44:09.097Z,7.00
2023-03-12T01:46:38.412Z,5.33
2023-03-12T01:49:15.397Z,9.03
2023-03-12T01:51:45.500Z,4.10
2023-03-12T01:54:16.668Z,5.37
2023-03-12T01:56:44.605Z,4.90
2023-03-12T01:59:14.956Z,5.13
2023-03-12T02:01:43.352Z,5.33
2023-03-12T02:04:11.827Z,5.37
2023-03-12T02:06:43.902Z,7.20
2023-03-12T02:09:12.637Z,8.10
2023-03-12T02:11:40.554Z,7.33
2023-03-12T02:14:08.307Z,4.90
2023-03-12T02:16:36.133Z,6.00
2023-03-12T02:19:05.962Z,4.40
2023-03-12T02:21:35.443Z,5.57
2023-03-12T02:24:09.485Z,4.90
2023-03-12T02:26:39.816Z,6.83
2023-03-12T02:29:09.828Z,3.90
2023-03-12T02:31:39.686Z,4.40
2023-03-12T02:34:08.547Z,4.80
2023-03-12T02:36:37.421Z,4.80
2023-03-12T02:39:05.851Z,5.07
2023-03-12T02:41:35.372Z,11.63
2023-03-12T02:44:06.812Z,3.90
2023-03-12T02:46:36.147Z,7.70
2023-03-12T02:49:04.523Z,6.43
2023-03-12T02:51:32.840Z,6.30
2023-03-12T02:54:00.563Z,6.33
2023-03-12T02:56:29.595Z,4.07
2023-03-12T02:58:57.869Z,8.30
2023-03-12T03:01:28.233Z,15.30
2023-03-12T03:03:56.794Z,11.37
2023-03-12T03:06:25.231Z,5.93
2023-03-12T03:08:53.001Z,3.40
2023-03-12T03:11:24.464Z,6.33
2023-03-12T03:13:55.761Z,4.90
2023-03-12T03:16:24.356Z,4.87
2023-03-12T03:18:53.694Z,5.77
2023-03-12T03:21:22.606Z,7.10
2023-03-12T03:23:50.642Z,7.30
2023-03-12T03:26:21.019Z,4.97
2023-03-12T03:28:49.203Z,8.43
2023-03-12T03:31:17.407Z,7.43
2023-03-12T03:33:47.157Z,4.60
2023-03-12T03:36:16.458Z,6.70
2023-03-12T03:38:52.828Z,3.57
2023-03-12T03:41:21.108Z,5.97
2023-03-12T03:43:49.859Z,5.43
2023-03-12T03:46:20.066Z,5.17
2023-03-12T03:48:52.892Z,6.30
2023-03-12T03:51:24.096Z,3.60
2023-03-12T03:53:58.389Z,8.10
2023-03-12T03:56:27.613Z,4.90
2023-03-12T03:58:55.734Z,6.87
2023-03-12T04:01:23.710Z,3.33
2023-03-12T04:03:52.900Z,4.17
2023-03-12T04:06:20.912Z,8.67
2023-03-12T04:08:50.826Z,9.83
2023-03-12T04:11:21.962Z,4.30
2023-03-12T04:13:51.391Z,4.70
2023-03-12T04:16:22.345Z,7.83
2023-03-12T04:18:53.775Z,4.73
2023-03-12T04:21:22.496Z,5.97
2023-03-12T04:23:52.722Z,11.63
2023-03-12T04:26:23.994Z,4.60
2023-03-12T04:28:52.006Z,9.00
2023-03-12T04:31:19.745Z,5.27
2023-03-12T04:33:51.833Z,11.53
2023-03-12T04:36:22.665Z,5.40
2023-03-12T04:38:54.333Z,11.10
2023-03-12T04:41:27.135Z,12.53
2023-03-12T04:44:12.840Z,6.43
2023-03-12T04:46:41.578Z,5.80
2023-03-12T04:49:10.360Z,7.73
2023-03-12T04:51:39.807Z,8.07
2023-03-12T04:54:09.681Z,8.70
2023-03-12T04:56:39.815Z,7.07
2023-03-12T04:59:07.575Z,8.70
2023-03-12T05:01:36.818Z,14.80
2023-03-12T05:04:09.810Z,6.37
2023-03-12T05:06:37.623Z,10.27
2023-03-12T05:09:05.671Z,8.90
2023-03-12T05:11:35.461Z,8.90
2023-03-12T05:14:03.977Z,11.27
2023-03-12T05:16:31.649Z,9.20
2023-03-12T05:19:00.179Z,7.87
2023-03-12T05:21:27.825Z,8.93
2023-03-12T05:23:57.782Z,9.13
2023-03-12T05:26:29.192Z,7.30
2023-03-12T05:29:05.824Z,9.50
2023-03-12T05:31:35.573Z,9.77
2023-03-12T05:34:05.707Z,11.37
2023-03-12T05:36:37.199Z,10.10
2023-03-12T05:39:05.451Z,11.60
2023-03-12T05:41:34.505Z,29.20
2023-03-12T05:44:12.084Z,12.13
2023-03-12T05:46:39.907Z,17.70
2023-03-12T05:49:07.981Z,10.40
2023-03-12T05:51:36.586Z,8.67
2023-03-12T05:54:04.572Z,10.97
2023-03-12T05:56:32.357Z,9.17
2023-03-12T05:59:02.075Z,12.03
2023-03-12T06:01:31.748Z,7.70
2023-03-12T06:04:01.686Z,10.30
2023-03-12T06:06:31.156Z,10.97
2023-03-12T06:08:59.877Z,7.90
2023-03-12T06:11:30.386Z,8.80
2023-03-12T06:13:58.204Z,10.73
2023-03-12T06:16:26.954Z,8.47
2023-03-12T06:18:56.994Z,9.90
2023-03-12T06:21:25.671Z,14.60
2023-03-12T06:23:53.948Z,9.00
2023-03-12T06:26:38.338Z,19.70
2023-03-12T06:29:05.981Z,12.93
2023-03-12T06:31:33.653Z,9.87
2023-03-12T06:34:03.997Z,18.60
2023-03-12T06:36:32.864Z,13.03
2023-03-12T06:39:00.455Z,12.07
2023-03-12T06:41:28.685Z,8.07
2023-03-12T06:43:56.339Z,8.33
2023-03-12T06:46:25.683Z,9.77
2023-03-12T06:48:53.639Z,9.87
2023-03-12T06:51:22.558Z,11.23
2023-03-12T06:53:50.199Z,8.40
2023-03-12T06:56:18.861Z,14.50
2023-03-12T06:58:46.677Z,9.60
2023-03-12T07:01:14.485Z,8.87
2023-03-12T07:03:42.479Z,6.57
2023-03-12T07:06:14.208Z,8.60
2023-03-12T07:08:43.729Z,8.50
2023-03-12T07:11:11.765Z,7.60
2023-03-12T07:13:39.652Z,10.73
2023-03-12T07:16:08.458Z,7.17
2023-03-12T07:18:36.213Z,9.27
2023-03-12T07:21:03.853Z,7.70
2023-03-12T07:23:31.781Z,5.53
2023-03-12T07:26:00.839Z,12.90
2023-03-12T07:28:28.913Z,9.33
2023-03-12T07:31:00.684Z,11.33
2023-03-12T07:33:31.006Z,6.60
2023-03-12T07:35:58.868Z,8.80
2023-03-12T07:38:27.614Z,6.43
2023-03-12T07:40:56.096Z,8.30
2023-03-12T07:43:25.714Z,6.17
2023-03-12T07:45:56.149Z,11.63
2023-03-12T07:48:23.898Z,9.00
2023-03-12T07:50:52.245Z,8.23
2023-03-12T07:53:20.463Z,9.17
2023-03-12T07:55:48.988Z,8.10
2023-03-12T07:58:17.230Z,8.63
2023-03-12T08:00:48.129Z,9.87
2023-03-12T08:03:16.880Z,10.03
2023-03-12T08:05:45.494Z,8.23
2023-03-12T08:08:13.657Z,9.57
2023-03-12T08:10:41.314Z,6.80
2023-03-12T08:13:09.787Z,12.50
2023-03-12T08:15:37.534Z,7.77
2023-03-12T08:18:06.810Z,7.60
2023-03-12T08:20:34.696Z,8.37
2023-03-12T08:23:02.471Z,6.57
2023-03-12T08:25:30.195Z,6.13
2023-03-12T08:27:58.096Z,6.60
2023-03-12T08:30:29.061Z,6.70
2023-03-12T08:32:58.752Z,8.43
2023-03-12T08:35:28.212Z,7.70
2023-03-12T08:37:57.485Z,10.10
2023-03-12T08:40:26.759Z,13.20
2023-03-12T08:42:55.144Z,9.17
2023-03-12T08:45:23.361Z,8.30
2023-03-12T08:47:51.105Z,13.67
2023-03-12T08:50:22.292Z,10.03
2023-03-12T08:52:51.813Z,11.17
2023-03-12T08:55:19.705Z,12.67
2023-03-12T08:57:48.102Z,12.60
2023-03-12T09:00:17.879Z,9.57
2023-03-12T09:02:46.476Z,7.67
2023-03-12T09:05:14.639Z,7.77
2023-03-12T09:07:42.938Z,9.17
2023-03-12T09:10:12.668Z,9.33
2023-03-12T09:12:40.396Z,7.90
2023-03-12T09:15:08.652Z,5.23
2023-03-12T09:17:36.351Z,8.63
2023-03-12T09:20:08.121Z,6.90
2023-03-12T09:22:37.338Z,9.47
2023-03-12T09:25:05.255Z,7.30
2023-03-12T09:27:38.085Z,6.47
2023-03-12T09:30:06.740Z,6.77
2023-03-12T09:32:34.451Z,5.67
2023-03-12T09:35:03.232Z,6.90
2023-03-12T09:37:32.232Z,8.07
2023-03-12T09:40:00.934Z,10.77
2023-03-12T09:42:31.989Z,8.83
2023-03-12T09:45:03.125Z,11.67
2023-03-12T09:47:32.745Z,9.30
2023-03-12T09:50:04.278Z,5.27
2023-03-12T09:52:34.429Z,5.83
2023-03-12T09:55:04.642Z,5.93
2023-03-12T09:57:32.596Z,5.17
2023-03-12T10:00:01.737Z,10.10
2023-03-12T10:02:54.592Z,7.23
2023-03-12T10:05:29.179Z,10.10
2023-03-12T10:07:58.779Z,6.10
2023-03-12T10:10:30.928Z,9.30
2023-03-12T10:13:15.231Z,9.03
2023-03-12T10:15:50.356Z,5.30
2023-03-12T10:18:22.531Z,11.07
2023-03-12T10:20:54.170Z,13.50
2023-03-12T10:23:30.089Z,7.70
2023-03-12T10:25:59.790Z,5.70
2023-03-12T10:28:31.781Z,9.23
2023-03-12T10:31:03.116Z,6.00
2023-03-12T10:33:37.648Z,6.17
2023-03-12T10:36:11.071Z,6.40
2023-03-12T10:38:38.920Z,6.47
2023-03-12T10:41:13.176Z,7.90
2023-03-12T10:43:40.965Z,16.27
2023-03-12T10:46:32.165Z,16.57
2023-03-12T10:49:24.099Z,11.07
2023-03-12T10:51:56.505Z,5.47
2023-03-12T10:54:28.283Z,7.57
2023-03-12T10:56:58.106Z,7.63
2023-03-12T10:59:28.321Z,6.93
2023-03-12T11:01:59.802Z,7.23
2023-03-12T11:04:30.430Z,6.40
2023-03-12T11:07:19.648Z,11.10
2023-03-12T11:09:47.579Z,8.47
2023-03-12T11:12:25.336Z,8.43
2023-03-12T11:14:53.267Z,12.60
2023-03-12T11:17:23.151Z,8.30
2023-03-12T11:19:51.537Z,6.30
2023-03-12T11:22:29.338Z,8.90
2023-03-12T11:24:57.938Z,15.13
2023-03-12T11:27:31.300Z,13.73
2023-03-12T11:30:00.148Z,7.73
2023-03-12T11:32:32.110Z,7.93
2023-03-12T11:35:00.106Z,11.50
2023-03-12T11:37:59.445Z,8.20
2023-03-12T11:40:32.448Z,9.73
2023-03-12T11:43:10.001Z,8.77
2023-03-12T11:45:41.733Z,10.10
2023-03-12T11:48:18.799Z,10.60
2023-03-12T11:50:53.037Z,8.30
2023-03-12T11:53:26.687Z,13.27
2023-03-12T11:56:00.110Z,10.30
2023-03-12T11:58:36.078Z,10.97
2023-03-12T12:01:07.842Z,8.93
2023-03-12T12:03:41.836Z,9.60
2023-03-12T12:06:12.994Z,8.97
2023-03-12T12:08:55.533Z,9.60
2023-03-12T12:11:29.362Z,10.73
2023-03-12T12:14:02.094Z,11.93
2023-03-12T12:16:38.143Z,12.20
2023-03-12T12:19:18.439Z,7.67
2023-03-12T12:21:52.511Z,8.73
2023-03-12T12:24:28.729Z,10.37
2023-03-12T12:26:59.754Z,7.00
2023-03-12T12:29:36.626Z,7.57
2023-03-12T12:32:06.551Z,11.20
2023-03-12T12:34:43.349Z,7.67
2023-03-12T12:37:18.017Z,7.97
2023-03-12T12:39:48.137Z,9.10
2023-03-12T12:42:17.590Z,11.33
2023-03-12T12:44:48.386Z,9.97
2023-03-12T12:47:18.807Z,9.60
2023-03-12T12:49:50.797Z,8.13
2023-03-12T12:52:20.049Z,8.97
2023-03-12T12:54:53.497Z,13.37
2023-03-12T12:57:22.416Z,7.60
2023-03-12T12:59:59.478Z,7.87
2023-03-12T13:02:30.082Z,8.43
2023-03-12T13:04:59.825Z,10.93
2023-03-12T13:07:32.105Z,6.37
2023-03-12T13:10:00.445Z,9.07
2023-03-12T13:12:30.846Z,8.23
2023-03-12T13:14:58.911Z,7.80
2023-03-12T13:17:30.892Z,6.33
2023-03-12T13:20:02.176Z,6.43
2023-03-12T13:22:50.741Z,8.00
2023-03-12T13:25:25.754Z,8.00
2023-03-12T13:27:59.642Z,6.97
2023-03-12T13:30:46.004Z,9.93
2023-03-12T13:33:15.083Z,7.27
2023-03-12T13:35:50.259Z,8.50
2023-03-12T13:38:19.438Z,7.70
2023-03-12T13:41:00.879Z,6.07
2023-03-12T13:43:49.901Z,4.30
2023-03-12T13:46:41.276Z,6.57
2023-03-12T13:49:13.857Z,8.87
2023-03-12T13:51:47.337Z,6.90
2023-03-12T13:54:18.184Z,6.30
2023-03-12T13:56:55.285Z,6.20
2023-03-12T13:59:24.512Z,6.23
2023-03-12T14:01:55.026Z,7.17
2023-03-12T14:04:24.750Z,7.20
2023-03-12T14:07:00.825Z,13.50
2023-03-12T14:09:32.900Z,5.57
2023-03-12T14:12:03.909Z,5.67
2023-03-12T14:14:49.911Z,6.20
2023-03-12T14:17:19.334Z,4.43
2023-03-12T14:19:51.159Z,6.63
2023-03-12T14:22:23.754Z,4.83
2023-03-12T14:24:54.517Z,5.10
2023-03-12T14:27:25.618Z,5.87
2023-03-12T14:29:54.570Z,7.07
2023-03-12T14:32:24.038Z,5.67
2023-03-12T14:34:53.458Z,7.00
2023-03-12T14:37:25.312Z,6.30
2023-03-12T14:39:55.644Z,5.00
2023-03-12T14:42:26.625Z,8.20
2023-03-12T14:44:55.721Z,8.63
2023-03-12T14:47:23.824Z,7.77
2023-03-12T14:49:51.981Z,6.13
2023-03-12T14:52:24.435Z,3.40
2023-03-12T14:54:55.852Z,8.13
2023-03-12T14:57:24.898Z,11.57
2023-03-12T14:59:56.288Z,5.43
2023-03-12T15:02:25.026Z,5.30
2023-03-12T15:04:55.194Z,9.33
2023-03-12T15:07:28.075Z,7.13
2023-03-12T15:09:55.990Z,5.80
2023-03-12T15:12:24.673Z,6.33
2023-03-12T15:14:54.436Z,7.00
2023-03-12T15:17:25.217Z,5.93
2023-03-12T15:19:57.545Z,6.03
2023-03-12T15:22:28.594Z,5.77
2023-03-12T15:24:56.578Z,8.83
2023-03-12T15:27:32.573Z,4.67
2023-03-12T15:30:01.111Z,5.20
2023-03-12T15:32:31.694Z,5.70
2023-03-12T15:35:01.435Z,8.80
2023-03-12T15:37:35.176Z,5.83
2023-03-12T15:40:06.875Z,7.00
2023-03-12T15:42:38.736Z,9.47
2023-03-12T15:45:09.049Z,8.27
2023-03-12T15:47:41.115Z,5.30
2023-03-12T15:50:13.599Z,9.17
2023-03-12T15:52:42.617Z,8.03
2023-03-12T15:55:26.660Z,7.03
2023-03-12T15:57:56.631Z,9.03
2023-03-12T16:00:27.533Z,9.43
2023-03-12T16:02:57.609Z,6.70
2023-03-12T16:05:28.600Z,11.97
2023-03-12T16:07:58.692Z,10.50
2023-03-12T16:10:28.559Z,11.33
2023-03-12T16:12:59.940Z,11.00
2023-03-12T16:15:30.634Z,9.20
2023-03-12T16:17:58.421Z,8.57
2023-03-12T16:20:26.414Z,8.37
2023-03-12T16:22:56.089Z,9.43
2023-03-12T16:25:25.766Z,8.30
2023-03-12T16:27:54.968Z,10.77
2023-03-12T16:30:24.750Z,8.93
2023-03-12T16:32:52.671Z,9.70
2023-03-12T16:35:21.158Z,14.83
2023-03-12T16:37:49.081Z,10.40
2023-03-12T16:40:30.881Z,8.63
2023-03-12T16:43:04.103Z,14.90
2023-03-12T16:45:32.455Z,11.20
2023-03-12T16:48:00.823Z,11.23
2023-03-12T16:50:29.029Z,11.70
2023-03-12T16:52:56.704Z,12.87
2023-03-12T16:55:27.368Z,10.57
2023-03-12T16:57:57.831Z,24.13
2023-03-12T17:00:28.017Z,11.47
2023-03-12T17:02:58.145Z,10.00
2023-03-12T17:05:26.882Z,13.43
2023-03-12T17:07:54.544Z,19.90
2023-03-12T17:10:23.026Z,13.93
2023-03-12T17:12:51.388Z,15.83
2023-03-12T17:15:20.932Z,11.50
2023-03-12T17:17:51.154Z,12.00
2023-03-12T17:20:19.872Z,20.87
2023-03-12T17:22:47.939Z,25.37
2023-03-12T17:25:20.977Z,22.17
2023-03-12T17:27:48.816Z,18.13
2023-03-12T17:30:16.790Z,13.17
2023-03-12T17:32:44.742Z,14.83
2023-03-12T17:35:14.102Z,24.63
2023-03-12T17:37:42.260Z,11.40
2023-03-12T17:40:11.267Z,15.50
2023-03-12T17:42:39.428Z,14.87
2023-03-12T17:45:08.161Z,14.00
2023-03-12T17:47:38.026Z,16.73
2023-03-12T17:50:06.141Z,19.23
2023-03-12T17:52:35.652Z,15.43
2023-03-12T17:55:05.201Z,14.50
2023-03-12T17:57:33.238Z,20.63
2023-03-12T18:00:01.108Z,19.67
2023-03-12T18:02:29.048Z,18.00
2023-03-12T18:04:57.306Z,13.50
2023-03-12T18:07:25.041Z,22.10
2023-03-12T18:09:54.327Z,18.43
2023-03-12T18:12:21.954Z,19.53
2023-03-12T18:14:49.797Z,22.57
2023-03-12T18:17:17.463Z,20.60
2023-03-12T18:19:45.194Z,18.27
2023-03-12T18:22:14.494Z,22.27
2023-03-12T18:24:42.751Z,23.50
2023-03-12T18:27:11.780Z,24.80
2023-03-12T18:29:41.039Z,30.67
2023-03-12T18:32:08.987Z,21.73
2023-03-12T18:34:37.582Z,26.57
2023-03-12T18:37:05.353Z,25.43
2023-03-12T18:39:33.605Z,26.33
2023-03-12T18:42:01.478Z,25.97
2023-03-12T18:44:31.937Z,24.03
2023-03-12T18:47:00.875Z,20.20
2023-03-12T18:49:28.976Z,22.50
2023-03-12T18:51:56.545Z,27.20
2023-03-12T18:54:27.088Z,23.97
2023-03-12T18:56:54.771Z,25.53
2023-03-12T18:59:22.433Z,24.83
2023-03-12T19:01:51.967Z,25.63
2023-03-12T19:04:20.275Z,23.30
2023-03-12T19:06:51.649Z,28.80
2023-03-12T19:09:20.409Z,25.73
2023-03-12T19:11:48.704Z,25.47
2023-03-12T19:14:16.965Z,26.90
2023-03-12T19:16:46.476Z,26.57
2023-03-12T19:19:17.523Z,29.83
2023-03-12T19:21:45.312Z,25.43
2023-03-12T19:24:13.246Z,27.67
2023-03-12T19:26:41.121Z,26.90
2023-03-12T19:29:08.860Z,31.93
2023-03-12T19:31:37.509Z,32.77
2023-03-12T19:34:06.425Z,30.80
2023-03-12T19:36:35.807Z,32.40
2023-03-12T19:39:06.752Z,24.87
2023-03-12T19:41:40.948Z,34.93
2023-03-12T19:44:08.896Z,33.70
2023-03-12T19:46:36.884Z,30.57
2023-03-12T19:49:05.349Z,35.37
2023-03-12T19:51:33.529Z,30.57
2023-03-12T19:54:06.982Z,32.27
2023-03-12T19:56:34.727Z,34.83
2023-03-12T19:59:02.555Z,44.03
2023-03-12T20:01:30.685Z,31.70
2023-03-12T20:04:01.427Z,30.43
2023-03-12T20:06:29.394Z,26.30
2023-03-12T20:08:57.408Z,30.70
2023-03-12T20:11:30.046Z,33.13
2023-03-12T20:13:58.383Z,27.17
2023-03-12T20:16:26.494Z,30.77
2023-03-12T20:18:54.239Z,29.93
2023-03-12T20:21:21.868Z,31.50
2023-03-12T20:23:49.728Z,34.33
2023-03-12T20:26:17.816Z,33.20
2023-03-12T20:28:46.830Z,41.53
2023-03-12T20:31:15.845Z,36.07
2023-03-12T20:33:43.890Z,32.13
2023-03-12T20:36:12.888Z,32.47
2023-03-12T20:38:41.176Z,35.40
2023-03-12T20:41:12.392Z,26.80
2023-03-12T20:43:40.328Z,30.80
2023-03-12T20:46:10.260Z,31.13
2023-03-12T20:48:38.498Z,31.63
2023-03-12T20:51:06.456Z,30.27
2023-03-12T20:53:34.862Z,29.97
2023-03-12T20:56:04.009Z,35.00
2023-03-12T20:58:33.214Z,26.77
2023-03-12T21:01:00.942Z,27.23
2023-03-12T21:03:30.455Z,29.83
2023-03-12T21:05:59.522Z,33.43
2023-03-12T21:08:27.233Z,29.30
2023-03-12T21:10:55.281Z,29.10
2023-03-12T21:13:24.048Z,29.20
2023-03-12T21:15:53.121Z,30.03
2023-03-12T21:18:20.918Z,30.57
2023-03-12T21:20:50.250Z,33.10
2023-03-12T21:23:18.087Z,24.97
2023-03-12T21:25:46.683Z,31.63
2023-03-12T21:28:14.290Z,31.60
2023-03-12T21:30:42.319Z,29.43
2023-03-12T21:33:10.306Z,30.43
2023-03-12T21:35:38.177Z,29.27
2023-03-12T21:38:07.168Z,28.23
2023-03-12T21:40:36.089Z,33.33
2023-03-12T21:43:04.044Z,31.50
2023-03-12T21:45:32.581Z,34.77
2023-03-12T21:48:00.254Z,29.33
2023-03-12T21:50:27.965Z,24.43
2023-03-12T21:52:55.616Z,26.00
2023-03-12T21:55:24.720Z,26.77
2023-03-12T21:57:52.421Z,30.27
2023-03-12T22:00:20.477Z,26.47
2023-03-12T22:02:48.439Z,29.30
2023-03-12T22:05:16.154Z,30.20
2023-03-12T22:07:44.275Z,27.30
2023-03-12T22:10:12.254Z,30.43
2023-03-12T22:12:41.780Z,27.07
2023-03-12T22:15:10.578Z,38.90
2023-03-12T22:17:38.171Z,25.47
2023-03-12T22:20:07.865Z,30.17
2023-03-12T22:22:35.765Z,25.00
2023-03-12T22:25:03.561Z,36.40
2023-03-12T22:27:31.663Z,26.90
2023-03-12T22:30:00.907Z,32.20
2023-03-12T22:32:28.864Z,28.90
2023-03-12T22:34:57.439Z,25.13
2023-03-12T22:37:25.151Z,25.80
2023-03-12T22:39:53.129Z,26.07
2023-03-12T22:42:21.312Z,26.03
2023-03-12T22:44:49.334Z,27.53
2023-03-12T22:47:18.620Z,25.77
2023-03-12T22:49:47.035Z,26.40
2023-03-12T22:52:14.660Z,27.13
2023-03-12T22:54:42.489Z,28.90
2023-03-12T22:57:10.590Z,26.27
2023-03-12T22:59:38.726Z,33.67
2023-03-12T23:02:06.760Z,30.30
2023-03-12T23:04:36.435Z,26.63
2023-03-12T23:07:13.721Z,35.90
2023-03-12T23:09:43.400Z,27.60
2023-03-12T23:12:11.560Z,26.80
2023-03-12T23:14:39.380Z,25.90
2023-03-12T23:17:07.091Z,26.87
2023-03-12T23:19:36.420Z,28.37
2023-03-12T23:22:04.167Z,28.53
2023-03-12T23:24:32.197Z,31.10
2023-03-12T23:27:00.224Z,36.80
2023-03-12T23:29:28.086Z,30.93
2023-03-12T23:31:55.778Z,31.83
2023-03-12T23:34:23.818Z,28.90
2023-03-12T23:36:52.952Z,30.50
2023-03-12T23:39:20.649Z,30.83
2023-03-12T23:41:48.335Z,30.37
2023-03-12T23:44:16.017Z,28.70
2023-03-12T23:46:45.138Z,31.63
2023-03-12T23:49:13.126Z,25.43
2023-03-12T23:51:41.037Z,33.30
2023-03-12T23:54:10.335Z,30.80
2023-03-12T23:56:39.315Z,29.60
2023-03-12T23:59:08.083Z,27.27
